createdAt,value
2018-03-01T00:00:12.690Z,13.67
2018-03-01T00:02:15.370Z,12.50
2018-03-01T00:04:18.083Z,13.03
2018-03-01T00:06:20.739Z,10.80
2018-03-01T00:08:23.427Z,12.10
2018-03-01T00:10:26.079Z,11.00
2018-03-01T00:12:28.769Z,11.70
2018-03-01T00:14:31.425Z,12.90
2018-03-01T00:16:34.090Z,12.80
2018-03-01T00:18:36.785Z,13.23
2018-03-01T00:20:39.444Z,13.20
2018-03-01T00:22:42.135Z,10.77
2018-03-01T00:24:44.812Z,12.20
2018-03-01T00:34:05.452Z,13.00
2018-03-01T00:36:08.160Z,9.97
2018-03-01T00:38:10.856Z,14.37
2018-03-01T00:40:13.538Z,11.50
2018-03-01T00:42:16.206Z,11.90
2018-03-01T00:44:18.898Z,11.30
2018-03-01T00:46:22.325Z,13.30
2018-03-01T00:48:24.998Z,12.57
2018-03-01T00:50:27.886Z,10.43
2018-03-01T00:52:30.545Z,12.73
2018-03-01T00:54:33.250Z,11.43
2018-03-01T00:56:35.896Z,12.00
2018-03-01T00:58:38.553Z,12.63
2018-03-01T01:00:42.000Z,11.50
2018-03-01T01:02:44.691Z,11.87
2018-03-01T01:04:47.706Z,11.03
2018-03-01T01:06:51.151Z,12.43
2018-03-01T01:08:53.823Z,11.67
2018-03-01T01:10:56.494Z,11.50
2018-03-01T01:12:59.177Z,10.93
2018-03-01T01:15:01.851Z,10.93
2018-03-01T01:17:04.531Z,11.93
2018-03-01T01:19:07.202Z,10.40
2018-03-01T01:21:09.892Z,11.50
2018-03-01T01:23:12.555Z,12.57
2018-03-01T01:25:15.273Z,11.83
2018-03-01T01:27:17.998Z,12.00
2018-03-01T01:29:20.668Z,11.60
2018-03-01T01:31:23.359Z,11.13
2018-03-01T01:33:26.138Z,11.47
2018-03-01T01:35:28.805Z,12.10
2018-03-01T01:37:31.474Z,11.43
2018-03-01T01:39:34.152Z,11.10
2018-03-01T01:41:36.832Z,12.17
2018-03-01T01:43:39.540Z,11.47
2018-03-01T01:45:42.235Z,9.50
2018-03-01T01:47:44.904Z,11.70
2018-03-01T01:49:47.704Z,11.90
2018-03-01T01:51:51.166Z,11.63
2018-03-01T01:53:53.835Z,13.50
2018-03-01T01:55:56.517Z,11.50
2018-03-01T01:57:59.193Z,10.07
2018-03-01T02:00:02.625Z,13.27
2018-03-01T02:02:06.169Z,11.90
2018-03-01T02:04:08.923Z,11.60
2018-03-01T02:06:11.660Z,10.20
2018-03-01T02:08:14.350Z,11.07
2018-03-01T02:10:17.920Z,10.30
2018-03-01T02:12:20.615Z,10.20
2018-03-01T02:14:23.365Z,9.83
2018-03-01T02:16:26.016Z,9.70
2018-03-01T02:18:28.775Z,11.40
2018-03-01T02:20:31.461Z,7.60
2018-03-01T02:22:34.188Z,10.40
2018-03-01T02:24:36.879Z,11.53
2018-03-01T02:26:39.527Z,11.33
2018-03-01T02:28:42.242Z,10.10
2018-03-01T02:30:45.772Z,10.80
2018-03-01T02:32:48.582Z,9.90
2018-03-01T02:34:51.285Z,11.30
2018-03-01T02:36:54.711Z,10.33
2018-03-01T02:38:57.434Z,12.13
2018-03-01T02:41:00.145Z,12.83
2018-03-01T02:43:03.647Z,11.43
2018-03-01T02:45:06.328Z,10.20
2018-03-01T02:47:09.235Z,11.57
2018-03-01T02:49:12.009Z,9.93
2018-03-01T02:51:15.401Z,10.90
2018-03-01T02:53:18.076Z,8.27
2018-03-01T02:55:20.749Z,10.33
2018-03-01T02:57:23.431Z,9.50
2018-03-01T02:59:26.123Z,10.40
2018-03-01T03:01:28.853Z,10.03
2018-03-01T03:03:32.295Z,10.60
2018-03-01T03:05:34.968Z,10.43
2018-03-01T03:07:37.640Z,11.47
2018-03-01T03:09:40.320Z,12.50
2018-03-01T03:11:42.995Z,11.10
2018-03-01T03:13:45.678Z,10.93
2018-03-01T03:15:48.626Z,11.10
2018-03-01T03:17:51.298Z,11.97
2018-03-01T03:19:53.979Z,8.73
2018-03-01T03:21:56.983Z,9.20
2018-03-01T03:23:59.651Z,10.50
2018-03-01T03:26:02.372Z,10.10
2018-03-01T03:28:05.075Z,11.07
2018-03-01T03:30:07.759Z,10.87
2018-03-01T03:32:10.554Z,10.90
2018-03-01T03:34:13.257Z,11.57
2018-03-01T03:36:15.950Z,10.30
2018-03-01T03:38:18.634Z,11.90
2018-03-01T03:40:21.351Z,9.70
2018-03-01T03:42:24.039Z,10.53
2018-03-01T03:44:26.719Z,11.60
2018-03-01T03:46:29.477Z,11.10
2018-03-01T03:48:32.132Z,9.67
2018-03-01T03:50:35.574Z,9.83
2018-03-01T03:52:38.228Z,10.60
2018-03-01T03:54:40.884Z,11.10
2018-03-01T03:56:44.343Z,11.40
2018-03-01T03:58:46.997Z,10.53
2018-03-01T04:00:51.029Z,10.90
2018-03-01T04:02:53.680Z,11.33
2018-03-01T04:04:56.395Z,10.90
2018-03-01T04:06:59.660Z,9.67
2018-03-01T04:09:02.428Z,10.63
2018-03-01T04:11:05.107Z,11.17
2018-03-01T04:13:07.827Z,9.57
2018-03-01T04:15:11.288Z,10.93
2018-03-01T04:17:13.995Z,11.90
2018-03-01T04:19:16.645Z,10.50
2018-03-01T04:21:19.323Z,10.60
2018-03-01T04:23:22.005Z,10.13
2018-03-01T04:25:24.739Z,10.17
2018-03-01T04:27:27.427Z,11.60
2018-03-01T04:29:30.091Z,9.63
2018-03-01T04:31:32.744Z,11.10
2018-03-01T04:33:36.191Z,10.53
2018-03-01T04:35:38.855Z,10.50
2018-03-01T04:37:41.542Z,10.40
2018-03-01T04:39:44.333Z,10.30
2018-03-01T04:41:46.999Z,8.97
2018-03-01T04:43:49.719Z,9.17
2018-03-01T04:45:53.152Z,8.50
2018-03-01T04:47:56.093Z,10.87
2018-03-01T04:49:59.533Z,9.83
2018-03-01T04:52:02.190Z,10.23
2018-03-01T04:54:04.912Z,10.20
2018-03-01T04:56:07.557Z,9.23
2018-03-01T04:58:10.216Z,8.27
2018-03-01T05:00:12.949Z,10.10
2018-03-01T05:02:15.605Z,10.50
2018-03-01T05:04:18.273Z,9.40
2018-03-01T05:06:20.976Z,9.60
2018-03-01T05:08:23.688Z,10.50
2018-03-01T05:10:26.384Z,9.50
2018-03-01T05:12:29.131Z,9.30
2018-03-01T05:14:31.879Z,10.30
2018-03-01T05:16:34.564Z,10.43
2018-03-01T05:18:37.217Z,11.77
2018-03-01T05:20:39.913Z,9.50
2018-03-01T05:22:42.578Z,9.30
2018-03-01T05:24:45.259Z,11.07
2018-03-01T05:26:47.905Z,10.40
2018-03-01T05:28:50.557Z,8.40
2018-03-01T05:30:53.232Z,12.13
2018-03-01T05:32:55.910Z,10.87
2018-03-01T05:34:58.828Z,11.80
2018-03-01T05:37:01.504Z,11.27
2018-03-01T05:39:04.205Z,10.37
2018-03-01T05:41:06.874Z,10.70
2018-03-01T05:43:09.570Z,11.27
2018-03-01T05:45:14.095Z,11.17
2018-03-01T05:47:16.938Z,10.97
2018-03-01T05:49:19.611Z,12.53
2018-03-01T05:51:22.285Z,9.17
2018-03-01T05:53:24.947Z,9.77
2018-03-01T05:55:27.709Z,10.10
2018-03-01T05:57:30.467Z,8.30
2018-03-01T05:59:33.898Z,9.23
2018-03-01T06:01:36.590Z,10.40
2018-03-01T06:03:40.225Z,9.73
2018-03-01T06:05:43.733Z,9.00
2018-03-01T06:07:46.389Z,7.53
2018-03-01T06:09:49.034Z,10.43
2018-03-01T06:11:51.718Z,7.93
2018-03-01T06:13:54.396Z,10.63
2018-03-01T06:15:57.040Z,9.40
2018-03-01T06:17:59.735Z,10.33
2018-03-01T06:20:03.154Z,9.70
2018-03-01T06:22:05.862Z,11.10
2018-03-01T06:24:08.603Z,8.23
2018-03-01T06:26:11.375Z,9.57
2018-03-01T06:28:14.075Z,10.00
2018-03-01T06:30:17.561Z,9.70
2018-03-01T06:32:20.237Z,11.37
2018-03-01T06:34:23.009Z,10.07
2018-03-01T06:36:25.699Z,9.60
2018-03-01T06:38:29.161Z,11.17
2018-03-01T06:40:32.608Z,9.80
2018-03-01T06:42:36.084Z,7.60
2018-03-01T06:44:38.756Z,11.00
2018-03-01T06:46:41.406Z,9.57
2018-03-01T06:48:44.067Z,8.70
2018-03-01T06:50:46.733Z,11.03
2018-03-01T06:52:49.462Z,9.00
2018-03-01T06:54:52.252Z,9.80
2018-03-01T06:56:55.684Z,8.93
2018-03-01T06:58:58.372Z,10.83
2018-03-01T07:01:01.009Z,11.93
2018-03-01T07:03:03.663Z,10.60
2018-03-01T07:05:07.568Z,8.27
2018-03-01T07:07:10.362Z,9.27
2018-03-01T07:09:13.818Z,11.23
2018-03-01T07:11:16.571Z,10.10
2018-03-01T07:13:19.233Z,10.03
2018-03-01T07:15:21.915Z,12.00
2018-03-01T07:17:24.590Z,10.90
2018-03-01T07:19:27.289Z,10.80
2018-03-01T07:21:29.946Z,10.70
2018-03-01T07:23:32.846Z,10.97
2018-03-01T07:25:35.630Z,12.27
2018-03-01T07:27:38.477Z,10.63
2018-03-01T07:29:42.084Z,10.67
2018-03-01T07:31:44.733Z,12.03
2018-03-01T07:33:48.215Z,11.23
2018-03-01T07:35:51.671Z,13.13
2018-03-01T07:37:54.317Z,9.47
2018-03-01T07:39:56.981Z,13.00
2018-03-01T07:41:59.632Z,11.77
2018-03-01T07:44:03.080Z,11.30
2018-03-01T07:46:05.771Z,11.97
2018-03-01T07:48:08.453Z,10.87
2018-03-01T07:50:11.307Z,11.50
2018-03-01T07:52:13.998Z,13.10
2018-03-01T07:54:16.691Z,11.50
2018-03-01T07:56:19.342Z,11.40
2018-03-01T07:58:22.024Z,9.87
2018-03-01T08:00:24.711Z,10.30
2018-03-01T08:02:27.364Z,11.30
2018-03-01T08:04:30.055Z,12.10
2018-03-01T08:06:32.707Z,11.10
2018-03-01T08:08:35.359Z,11.03
2018-03-01T08:10:38.051Z,12.47
2018-03-01T08:12:40.715Z,12.70
2018-03-01T08:14:43.393Z,11.03
2018-03-01T08:16:46.097Z,8.40
2018-03-01T08:18:48.736Z,11.57
2018-03-01T08:20:52.306Z,12.17
2018-03-01T08:22:54.967Z,11.80
2018-03-01T08:24:57.624Z,11.20
2018-03-01T08:27:00.325Z,12.20
2018-03-01T08:29:02.991Z,12.57
2018-03-01T08:31:05.683Z,14.30
2018-03-01T08:33:08.368Z,12.47
2018-03-01T08:35:11.020Z,13.30
2018-03-01T08:37:13.690Z,14.10
2018-03-01T08:39:16.345Z,12.40
2018-03-01T08:41:19.021Z,14.00
2018-03-01T08:43:21.679Z,14.03
2018-03-01T08:45:24.334Z,13.57
2018-03-01T08:47:27.789Z,14.33
2018-03-01T08:49:30.437Z,14.17
2018-03-01T08:51:33.138Z,14.20
2018-03-01T08:53:35.823Z,13.70
2018-03-01T08:55:38.507Z,14.30
2018-03-01T08:57:41.185Z,14.33
2018-03-01T08:59:43.851Z,13.27
2018-03-01T09:01:46.507Z,14.30
2018-03-01T09:03:50.051Z,12.93
2018-03-01T09:05:52.740Z,12.80
2018-03-01T09:07:56.173Z,13.30
2018-03-01T09:09:58.826Z,14.53
2018-03-01T09:12:01.487Z,12.67
2018-03-01T09:14:04.181Z,12.50
2018-03-01T09:16:06.833Z,12.83
2018-03-01T09:18:10.269Z,12.97
2018-03-01T09:20:13.141Z,12.50
2018-03-01T09:22:15.796Z,12.33
2018-03-01T09:24:18.471Z,14.20
2018-03-01T09:26:21.129Z,11.90
2018-03-01T09:28:24.584Z,13.57
2018-03-01T09:30:27.319Z,12.53
2018-03-01T09:32:29.993Z,12.23
2018-03-01T09:34:33.436Z,11.33
2018-03-01T09:36:36.861Z,11.80
2018-03-01T09:38:40.303Z,10.83
2018-03-01T09:40:42.971Z,12.77
2018-03-01T09:42:45.660Z,13.00
2018-03-01T09:44:48.348Z,11.97
2018-03-01T09:46:51.027Z,13.60
2018-03-01T09:48:53.744Z,12.67
2018-03-01T09:50:57.163Z,13.33
2018-03-01T09:52:59.920Z,14.27
2018-03-01T09:55:03.381Z,12.93
2018-03-01T09:57:06.041Z,13.50
2018-03-01T09:59:08.721Z,14.50
2018-03-01T10:01:11.413Z,15.17
2018-03-01T10:03:14.087Z,14.30
2018-03-01T10:05:16.763Z,14.37
2018-03-01T10:07:19.436Z,16.30
2018-03-01T10:09:22.111Z,14.10
2018-03-01T10:11:24.780Z,14.53
2018-03-01T10:13:27.440Z,15.33
2018-03-01T10:15:30.125Z,13.20
2018-03-01T10:17:32.822Z,12.97
2018-03-01T10:19:35.504Z,13.50
2018-03-01T10:21:38.176Z,14.60
2018-03-01T10:23:40.826Z,13.20
2018-03-01T10:25:43.545Z,14.57
2018-03-01T10:27:46.972Z,15.83
2018-03-01T10:29:49.656Z,14.80
2018-03-01T10:31:52.420Z,16.80
2018-03-01T10:33:55.152Z,14.37
2018-03-01T10:35:57.849Z,14.10
2018-03-01T10:38:01.280Z,14.23
2018-03-01T10:40:04.003Z,15.70
2018-03-01T10:42:06.666Z,13.87
2018-03-01T10:44:09.313Z,12.97
2018-03-01T10:46:12.053Z,13.97
2018-03-01T10:48:15.489Z,13.37
2018-03-01T10:50:18.145Z,13.27
2018-03-01T10:52:20.822Z,14.10
2018-03-01T10:54:23.573Z,13.27
2018-03-01T10:56:27.029Z,12.73
2018-03-01T10:58:29.689Z,13.00
2018-03-01T11:00:38.102Z,12.97
2018-03-01T11:02:40.750Z,13.20
2018-03-01T11:04:43.428Z,14.20
2018-03-01T11:06:46.109Z,13.03
2018-03-01T11:08:48.771Z,13.80
2018-03-01T11:10:52.293Z,11.40
2018-03-01T11:12:55.189Z,13.40
2018-03-01T11:14:57.868Z,13.07
2018-03-01T11:17:00.548Z,13.73
2018-03-01T11:19:04.946Z,12.07
2018-03-01T11:21:07.654Z,12.03
2018-03-01T11:23:10.359Z,12.70
2018-03-01T11:25:13.903Z,12.90
2018-03-01T11:27:16.592Z,12.33
2018-03-01T11:29:19.263Z,11.13
2018-03-01T11:31:21.919Z,10.60
2018-03-01T11:33:24.593Z,11.70
2018-03-01T11:35:33.512Z,11.63
2018-03-01T11:37:36.195Z,11.63
2018-03-01T11:39:40.506Z,11.50
2018-03-01T11:41:43.177Z,11.93
2018-03-01T11:43:45.884Z,10.97
2018-03-01T11:45:48.549Z,11.03
2018-03-01T11:47:51.237Z,11.00
2018-03-01T11:49:53.924Z,9.93
2018-03-01T11:51:56.591Z,10.27
2018-03-01T11:53:59.248Z,11.03
2018-03-01T11:56:01.925Z,10.47
2018-03-01T11:58:04.577Z,9.27
2018-03-01T12:00:07.278Z,10.57
2018-03-01T12:02:09.925Z,11.57
2018-03-01T12:04:12.681Z,10.17
2018-03-01T12:06:15.344Z,10.57
2018-03-01T12:08:18.020Z,9.93
2018-03-01T12:10:20.689Z,10.00
2018-03-01T12:12:23.346Z,10.77
2018-03-01T12:14:26.007Z,11.13
2018-03-01T12:16:28.700Z,10.10
2018-03-01T12:18:31.369Z,10.53
2018-03-01T12:20:34.091Z,10.70
2018-03-01T12:22:37.517Z,10.37
2018-03-01T12:24:40.220Z,9.73
2018-03-01T12:26:42.934Z,11.00
2018-03-01T12:28:45.576Z,10.20
2018-03-01T12:30:48.245Z,10.83
2018-03-01T12:32:51.009Z,9.50
2018-03-01T12:34:53.681Z,9.80
2018-03-01T12:36:56.358Z,10.27
2018-03-01T12:38:59.019Z,10.73
2018-03-01T12:41:01.717Z,9.53
2018-03-01T12:43:04.389Z,9.80
2018-03-01T12:45:07.067Z,9.90
2018-03-01T12:47:09.738Z,9.43
2018-03-01T12:49:12.397Z,9.03
2018-03-01T12:51:15.124Z,10.00
2018-03-01T12:53:17.903Z,10.10
2018-03-01T12:55:20.558Z,9.10
2018-03-01T12:57:23.242Z,9.70
2018-03-01T12:59:25.909Z,10.17
2018-03-01T13:01:28.588Z,10.07
2018-03-01T13:03:31.267Z,10.53
2018-03-01T13:05:33.911Z,9.70
2018-03-01T13:07:37.181Z,10.63
2018-03-01T13:09:40.823Z,9.30
2018-03-01T13:11:43.505Z,9.63
2018-03-01T13:13:46.173Z,10.03
2018-03-01T13:15:48.821Z,9.90
2018-03-01T13:17:52.265Z,10.30
2018-03-01T13:19:54.935Z,10.53
2018-03-01T13:21:57.639Z,10.50
2018-03-01T13:24:00.296Z,10.43
2018-03-01T13:26:02.960Z,9.43
2018-03-01T13:28:05.643Z,9.27
2018-03-01T13:30:10.009Z,9.30
2018-03-01T13:32:24.307Z,9.87
2018-03-01T13:37:09.764Z,9.80
2018-03-01T13:39:12.469Z,11.10
2018-03-01T13:41:15.159Z,9.57
2018-03-01T13:43:21.413Z,8.50
2018-03-01T13:45:24.093Z,9.50
2018-03-01T13:47:30.471Z,10.27
2018-03-01T13:49:33.211Z,10.03
2018-03-01T13:51:35.976Z,10.70
2018-03-01T13:53:38.658Z,9.00
2018-03-01T13:55:41.348Z,9.90
2018-03-01T13:57:44.015Z,9.87
2018-03-01T13:59:46.692Z,9.67
2018-03-01T14:01:49.362Z,9.67
2018-03-01T14:03:52.088Z,9.70
2018-03-01T14:08:40.449Z,9.30
2018-03-01T14:10:43.127Z,9.80
2018-03-01T14:12:51.555Z,9.70
2018-03-01T14:14:55.048Z,9.63
2018-03-01T14:17:02.244Z,9.90
2018-03-01T14:19:19.434Z,10.50
2018-03-01T14:21:30.487Z,9.10
2018-03-01T14:23:37.309Z,8.97
2018-03-01T14:25:40.094Z,9.33
2018-03-01T14:27:48.947Z,9.40
2018-03-01T14:29:52.104Z,9.10
2018-03-01T14:31:54.865Z,9.03
2018-03-01T14:33:58.326Z,9.13
2018-03-01T14:36:01.708Z,8.83
2018-03-01T14:38:05.182Z,9.90
2018-03-01T14:40:07.845Z,8.73
2018-03-01T14:42:11.283Z,10.10
2018-03-01T14:44:13.977Z,9.20
2018-03-01T14:46:16.636Z,9.37
2018-03-01T14:48:19.304Z,9.60
2018-03-01T14:50:21.945Z,7.80
2018-03-01T14:52:24.639Z,8.70
2018-03-01T14:54:27.289Z,9.37
2018-03-01T14:56:30.082Z,8.87
2018-03-01T14:58:32.746Z,8.73
2018-03-01T15:00:35.616Z,8.63
2018-03-01T15:02:38.477Z,9.17
2018-03-01T15:04:41.886Z,8.20
2018-03-01T15:06:45.297Z,9.57
2018-03-01T15:08:47.965Z,10.50
2018-03-01T15:10:50.651Z,8.83
2018-03-01T15:12:53.387Z,9.10
2018-03-01T15:14:56.051Z,9.40
2018-03-01T15:16:58.712Z,8.60
2018-03-01T15:19:01.561Z,8.80
2018-03-01T15:21:04.221Z,9.60
2018-03-01T15:23:06.902Z,9.37
2018-03-01T15:25:09.553Z,9.07
2018-03-01T15:27:13.086Z,9.60
2018-03-01T15:29:15.863Z,8.87
2018-03-01T15:31:18.557Z,9.20
2018-03-01T15:33:21.224Z,9.63
2018-03-01T15:35:24.606Z,9.87
2018-03-01T15:37:27.380Z,8.23
2018-03-01T15:39:30.118Z,8.17
2018-03-01T15:41:32.752Z,7.50
2018-03-01T15:43:35.584Z,9.37
2018-03-01T15:45:39.007Z,9.27
2018-03-01T15:47:41.676Z,8.93
2018-03-01T15:49:44.364Z,8.83
2018-03-01T15:51:47.035Z,9.53
2018-03-01T15:53:49.701Z,8.33
2018-03-01T15:55:52.376Z,9.27
2018-03-01T15:57:55.092Z,8.67
2018-03-01T15:59:57.903Z,8.23
2018-03-01T16:02:00.720Z,9.00
2018-03-01T16:04:04.305Z,9.80
2018-03-01T16:06:07.657Z,9.27
2018-03-01T16:08:10.384Z,10.20
2018-03-01T16:10:13.556Z,8.90
2018-03-01T16:12:16.522Z,7.93
2018-03-01T16:14:19.265Z,9.07
2018-03-01T16:16:23.216Z,10.47
2018-03-01T16:18:27.268Z,9.77
2018-03-01T16:20:30.372Z,9.50
2018-03-01T16:22:33.031Z,8.90
2018-03-01T16:24:35.796Z,9.07
2018-03-01T16:26:38.448Z,9.30
2018-03-01T16:28:41.936Z,9.77
2018-03-01T16:30:49.412Z,11.90
2018-03-01T16:32:52.094Z,8.50
2018-03-01T16:34:55.828Z,8.87
2018-03-01T16:36:58.561Z,8.90
2018-03-01T16:39:01.211Z,8.20
2018-03-01T16:41:03.949Z,9.17
2018-03-01T16:43:06.624Z,8.13
2018-03-01T16:45:09.481Z,8.07
2018-03-01T16:47:12.216Z,8.60
2018-03-01T16:49:14.948Z,8.17
2018-03-01T16:51:19.787Z,8.33
2018-03-01T16:53:22.694Z,7.40
2018-03-01T16:55:25.378Z,7.77
2018-03-01T16:57:28.145Z,7.23
2018-03-01T16:59:30.896Z,7.93
2018-03-01T17:01:34.767Z,8.50
2018-03-01T17:03:37.443Z,8.50
2018-03-01T17:05:40.140Z,8.60
2018-03-01T17:07:43.594Z,8.13
2018-03-01T17:09:46.256Z,9.50
2018-03-01T17:11:48.980Z,8.30
2018-03-01T17:13:52.432Z,8.70
2018-03-01T17:15:55.150Z,7.37
2018-03-01T17:17:57.851Z,7.57
2018-03-01T17:20:00.502Z,7.60
2018-03-01T17:22:03.950Z,8.00
2018-03-01T17:24:06.710Z,7.33
2018-03-01T17:26:09.357Z,8.63
2018-03-01T17:28:12.816Z,7.50
2018-03-01T17:30:15.513Z,8.67
2018-03-01T17:32:18.200Z,8.40
2018-03-01T17:34:21.630Z,6.37
2018-03-01T17:36:24.315Z,8.00
2018-03-01T17:38:27.057Z,7.70
2018-03-01T17:40:30.552Z,8.47
2018-03-01T17:42:34.019Z,8.03
2018-03-01T17:44:36.778Z,7.73
2018-03-01T17:46:39.489Z,7.80
2018-03-01T17:48:42.179Z,8.30
2018-03-01T17:50:46.662Z,7.80
2018-03-01T17:52:49.367Z,6.80
2018-03-01T17:54:53.034Z,7.33
2018-03-01T17:56:55.742Z,6.10
2018-03-01T17:58:59.266Z,7.90
2018-03-01T18:01:02.048Z,7.77
2018-03-01T18:03:04.721Z,8.07
2018-03-01T18:05:07.396Z,8.30
2018-03-01T18:07:10.064Z,7.93
2018-03-01T18:09:12.801Z,7.43
2018-03-01T18:11:15.652Z,7.50
2018-03-01T18:13:18.508Z,7.97
2018-03-01T18:15:21.289Z,7.80
2018-03-01T18:17:23.983Z,6.60
2018-03-01T18:19:26.704Z,8.23
2018-03-01T18:21:29.381Z,8.63
2018-03-01T18:23:32.309Z,7.33
2018-03-01T18:25:35.149Z,7.50
2018-03-01T18:27:38.866Z,7.00
2018-03-01T18:29:42.312Z,7.37
2018-03-01T18:31:46.267Z,8.80
2018-03-01T18:33:56.965Z,7.40
2018-03-01T18:36:00.176Z,6.70
2018-03-01T18:38:04.298Z,7.80
2018-03-01T18:40:07.791Z,7.43
2018-03-01T18:42:12.134Z,7.20
2018-03-01T18:44:16.244Z,8.33
2018-03-01T18:46:19.726Z,7.90
2018-03-01T18:48:22.466Z,7.50
2018-03-01T18:50:25.201Z,7.80
2018-03-01T18:52:28.629Z,7.50
2018-03-01T18:54:31.299Z,6.90
2018-03-01T18:56:34.001Z,7.90
2018-03-01T18:58:36.769Z,8.00
2018-03-01T19:00:39.632Z,7.73
2018-03-01T19:02:42.440Z,8.90
2018-03-01T19:04:45.284Z,8.43
2018-03-01T19:06:47.976Z,7.67
2018-03-01T19:08:50.630Z,9.33
2018-03-01T19:10:53.315Z,8.80
2018-03-01T19:12:56.204Z,6.57
2018-03-01T19:14:58.904Z,9.50
2018-03-01T19:17:01.581Z,7.70
2018-03-01T19:19:04.247Z,7.97
2018-03-01T19:21:07.115Z,7.67
2018-03-01T19:23:09.844Z,8.53
2018-03-01T19:25:12.542Z,8.10
2018-03-01T19:27:15.222Z,7.73
2018-03-01T19:29:17.896Z,8.87
2018-03-01T19:31:20.558Z,7.50
2018-03-01T19:33:24.026Z,9.23
2018-03-01T19:35:26.671Z,8.20
2018-03-01T19:37:29.355Z,7.40
2018-03-01T19:39:32.019Z,7.50
2018-03-01T19:41:34.794Z,8.13
2018-03-01T19:43:37.715Z,8.10
2018-03-01T19:45:40.357Z,8.87
2018-03-01T19:47:43.048Z,8.30
2018-03-01T19:49:45.729Z,8.37
2018-03-01T19:51:48.399Z,8.90
2018-03-01T19:53:51.085Z,7.00
2018-03-01T19:55:53.734Z,8.70
2018-03-01T19:57:56.955Z,7.93
2018-03-01T19:59:59.628Z,9.07
2018-03-01T20:02:02.648Z,9.47
2018-03-01T20:04:06.090Z,8.60
2018-03-01T20:06:08.884Z,10.70
2018-03-01T20:08:11.592Z,9.23
2018-03-01T20:10:15.040Z,9.00
2018-03-01T20:12:17.862Z,8.53
2018-03-01T20:14:21.390Z,9.37
2018-03-01T20:16:24.056Z,9.63
2018-03-01T20:18:26.735Z,10.60
2018-03-01T20:20:29.527Z,9.43
2018-03-01T20:22:32.204Z,9.07
2018-03-01T20:24:34.931Z,9.77
2018-03-01T20:26:37.691Z,9.50
2018-03-01T20:28:40.353Z,8.90
2018-03-01T20:30:43.071Z,10.93
2018-03-01T20:32:46.507Z,10.13
2018-03-01T20:34:49.291Z,9.67
2018-03-01T20:36:51.943Z,9.93
2018-03-01T20:38:54.763Z,6.40
2018-03-01T20:40:57.497Z,9.60
2018-03-01T20:43:00.141Z,10.23
2018-03-01T20:45:02.825Z,10.63
2018-03-01T20:47:05.508Z,11.33
2018-03-01T20:49:09.039Z,7.80
2018-03-01T20:51:11.792Z,10.93
2018-03-01T20:53:15.264Z,11.03
2018-03-01T20:55:19.038Z,10.63
2018-03-01T20:57:21.758Z,10.07
2018-03-01T20:59:25.196Z,10.07
2018-03-01T21:01:27.887Z,10.07
2018-03-01T21:03:30.603Z,10.57
2018-03-01T21:05:34.065Z,11.33
2018-03-01T21:07:36.857Z,10.57
2018-03-01T21:09:39.568Z,13.93
2018-03-01T21:11:42.256Z,10.47
2018-03-01T21:13:45.044Z,10.20
2018-03-01T21:15:47.739Z,10.50
2018-03-01T21:17:50.407Z,9.80
2018-03-01T21:19:53.052Z,12.20
2018-03-01T21:21:55.731Z,9.00
2018-03-01T21:23:58.563Z,12.60
2018-03-01T21:26:01.271Z,10.60
2018-03-01T21:28:04.076Z,10.87
2018-03-01T21:30:07.113Z,10.60
2018-03-01T21:32:10.614Z,11.97
2018-03-01T21:34:13.724Z,10.17
2018-03-01T21:36:16.404Z,12.20
2018-03-01T21:38:20.799Z,13.20
2018-03-01T21:40:23.654Z,10.97
2018-03-01T21:42:33.181Z,9.47
2018-03-01T21:44:36.046Z,12.37
2018-03-01T21:46:38.804Z,11.40
2018-03-01T21:48:41.794Z,10.60
2018-03-01T21:50:44.651Z,10.23
2018-03-01T21:52:48.428Z,10.90
2018-03-01T21:54:51.091Z,10.83
2018-03-01T21:56:54.510Z,10.67
2018-03-01T21:58:57.281Z,9.63
2018-03-01T22:00:59.931Z,8.97
2018-03-01T22:03:02.621Z,10.13
2018-03-01T22:05:05.303Z,11.90
2018-03-01T22:07:07.972Z,10.47
2018-03-01T22:09:10.655Z,10.30
2018-03-01T22:11:13.313Z,11.10
2018-03-01T22:13:16.037Z,10.30
2018-03-01T22:15:19.477Z,10.70
2018-03-01T22:17:22.343Z,12.13
2018-03-01T22:19:25.023Z,9.60
2018-03-01T22:21:27.675Z,10.10
2018-03-01T22:23:30.347Z,11.50
2018-03-01T22:25:33.012Z,10.40
2018-03-01T22:27:36.448Z,10.90
2018-03-01T22:29:39.144Z,9.93
2018-03-01T22:31:41.813Z,11.70
2018-03-01T22:33:44.508Z,9.17
2018-03-01T22:35:47.155Z,9.67
2018-03-01T22:37:49.846Z,11.43
2018-03-01T22:39:52.520Z,10.00
2018-03-01T22:41:55.188Z,10.57
2018-03-01T22:43:58.003Z,11.03
2018-03-01T22:46:00.664Z,10.30
2018-03-01T22:48:03.325Z,11.20
2018-03-01T22:50:06.772Z,8.90
2018-03-01T22:52:10.204Z,10.23
2018-03-01T22:54:12.861Z,11.00
2018-03-01T22:56:15.563Z,10.00
2018-03-01T22:58:18.266Z,11.83
2018-03-01T23:00:33.670Z,10.93
2018-03-01T23:02:37.160Z,10.77
2018-03-01T23:04:39.914Z,10.47
2018-03-01T23:06:42.585Z,10.70
2018-03-01T23:08:45.256Z,10.10
2018-03-01T23:10:47.952Z,10.33
2018-03-01T23:12:51.387Z,10.90
2018-03-01T23:14:54.064Z,11.20
2018-03-01T23:16:56.751Z,11.63
2018-03-01T23:18:59.465Z,11.40
2018-03-01T23:21:02.184Z,10.60
2018-03-01T23:23:04.885Z,11.03
2018-03-01T23:25:07.550Z,10.70
2018-03-01T23:27:10.256Z,11.57
2018-03-01T23:29:12.905Z,9.67
2018-03-01T23:31:15.613Z,10.60
2018-03-01T23:33:18.348Z,11.60
2018-03-01T23:35:20.997Z,10.87
2018-03-01T23:37:24.454Z,10.37
2018-03-01T23:39:27.138Z,10.77
2018-03-01T23:41:29.855Z,11.50
2018-03-01T23:43:33.270Z,10.87
2018-03-01T23:45:35.934Z,11.60
2018-03-01T23:47:38.601Z,9.93
2018-03-01T23:49:41.257Z,11.73
2018-03-01T23:51:44.717Z,11.10
2018-03-01T23:53:47.394Z,11.47
2018-03-01T23:55:50.433Z,10.70
2018-03-01T23:57:53.133Z,11.77
2018-03-01T23:59:55.807Z,12.50
